createdAt,value
2018-12-25T00:00:36.547Z,0.21
2018-12-25T00:03:28.516Z,0.13
2018-12-25T00:06:12.252Z,0.08
2018-12-25T00:09:04.675Z,0.03
2018-12-25T00:11:48.784Z,0.02
2018-12-25T00:14:39.817Z,-0.14
2018-12-25T00:17:23.532Z,-0.07
2018-12-25T00:20:14.555Z,-0.06
2018-12-25T00:22:57.977Z,-0.09
2018-12-25T00:25:48.925Z,-0.10
2018-12-25T00:28:32.801Z,-0.17
2018-12-25T00:31:23.819Z,-0.24
2018-12-25T00:34:07.224Z,-0.37
2018-12-25T00:36:51.013Z,-0.16
2018-12-25T00:39:41.962Z,-0.16
2018-12-25T00:42:25.505Z,-0.19
2018-12-25T00:44:57.507Z,-0.28
2018-12-25T00:47:41.110Z,-0.47
2018-12-25T00:50:32.052Z,-0.53
2018-12-25T00:53:15.817Z,-0.58
2018-12-25T00:56:06.763Z,-0.60
2018-12-25T00:58:50.201Z,-0.63
2018-12-25T01:01:41.219Z,-0.66
2018-12-25T01:04:25.094Z,-0.75
2018-12-25T01:07:16.111Z,-0.70
2018-12-25T01:09:59.913Z,-0.81
2018-12-25T01:12:50.853Z,-0.82
2018-12-25T01:15:35.432Z,-0.83
2018-12-25T01:18:07.359Z,-0.90
2018-12-25T01:20:39.108Z,-0.88
2018-12-25T01:23:10.882Z,-0.92
2018-12-25T01:25:42.686Z,-0.96
2018-12-25T01:28:14.422Z,-0.99
2018-12-25T01:30:46.255Z,-1.07
2018-12-25T01:33:18.075Z,-1.13
2018-12-25T01:35:50.207Z,-1.14
2018-12-25T01:38:22.332Z,-1.15
2018-12-25T01:40:54.072Z,-1.18
2018-12-25T01:43:25.810Z,-1.19
2018-12-25T01:45:57.571Z,-1.22
2018-12-25T01:48:29.422Z,-1.27
2018-12-25T01:51:01.236Z,-1.42
2018-12-25T01:53:33.060Z,-1.23
2018-12-25T01:56:04.877Z,-1.14
2018-12-25T01:58:36.605Z,-1.10
2018-12-25T02:01:08.503Z,-1.06
2018-12-25T02:03:40.243Z,-1.15
2018-12-25T02:06:12.270Z,-1.12
2018-12-25T02:08:44.122Z,-1.10
2018-12-25T02:11:15.955Z,-1.10
2018-12-25T02:13:48.058Z,-0.94
2018-12-25T02:16:19.801Z,-0.95
2018-12-25T02:18:51.613Z,-1.13
2018-12-25T02:21:23.394Z,-1.07
2018-12-25T02:23:55.129Z,-1.07
2018-12-25T02:26:26.901Z,-1.09
2018-12-25T02:28:58.789Z,-1.16
2018-12-25T02:31:30.616Z,-1.17
2018-12-25T02:34:02.452Z,-1.20
2018-12-25T02:36:34.534Z,-1.22
2018-12-25T02:39:08.708Z,-0.70
2018-12-25T02:41:40.493Z,-0.98
2018-12-25T02:44:12.224Z,-1.11
2018-12-25T02:46:44.291Z,-1.21
2018-12-25T02:49:18.324Z,-1.26
2018-12-25T02:51:49.489Z,-1.16
2018-12-25T02:54:21.651Z,-1.15
2018-12-25T02:56:53.448Z,-1.13
2018-12-25T02:59:25.456Z,-1.25
2018-12-25T03:01:57.485Z,-1.27
2018-12-25T03:04:29.220Z,-1.17
2018-12-25T03:07:01.350Z,-1.05
2018-12-25T03:09:33.089Z,-0.95
2018-12-25T03:12:04.904Z,-0.94
2018-12-25T03:14:37.038Z,-1.01
2018-12-25T03:17:10.016Z,-0.97
2018-12-25T03:19:41.740Z,-1.05
2018-12-25T03:22:13.472Z,-0.94
2018-12-25T03:24:45.205Z,-1.25
2018-12-25T03:27:16.940Z,-1.16
2018-12-25T03:29:48.662Z,-0.92
2018-12-25T03:32:20.773Z,-0.70
2018-12-25T03:34:52.485Z,-0.72
2018-12-25T03:37:25.990Z,-0.79
2018-12-25T03:39:58.153Z,-1.03
2018-12-25T03:42:29.893Z,-1.16
2018-12-25T03:45:01.616Z,-1.06
2018-12-25T03:47:33.686Z,-1.05
2018-12-25T03:50:10.833Z,-1.28
2018-12-25T03:52:40.133Z,-0.92
2018-12-25T03:55:11.934Z,-1.17
2018-12-25T03:57:43.686Z,-1.31
2018-12-25T04:00:15.427Z,-1.46
2018-12-25T04:02:47.162Z,-1.29
2018-12-25T04:05:18.908Z,-1.27
2018-12-25T04:07:50.651Z,-1.35
2018-12-25T04:10:22.650Z,-1.15
2018-12-25T04:12:54.416Z,-1.48
2018-12-25T04:15:26.147Z,-1.38
2018-12-25T04:17:57.906Z,-1.37
2018-12-25T04:20:29.638Z,-1.17
2018-12-25T04:23:01.376Z,-1.09
2018-12-25T04:25:33.115Z,-1.13
2018-12-25T04:28:04.861Z,-1.16
2018-12-25T04:30:36.606Z,-1.19
2018-12-25T04:33:08.346Z,-1.32
2018-12-25T04:35:40.094Z,-1.31
2018-12-25T04:38:11.842Z,-1.36
2018-12-25T04:40:43.575Z,-1.38
2018-12-25T04:43:15.331Z,-1.43
2018-12-25T04:45:47.063Z,-1.42
2018-12-25T04:48:18.804Z,-1.42
2018-12-25T04:50:50.837Z,-1.34
2018-12-25T04:53:22.778Z,-1.34
2018-12-25T04:55:54.494Z,-1.14
2018-12-25T04:58:26.568Z,-1.26
2018-12-25T05:00:58.381Z,-1.27
2018-12-25T05:03:30.124Z,-1.34
2018-12-25T05:06:02.122Z,-1.29
2018-12-25T05:08:33.871Z,-1.39
2018-12-25T05:11:05.754Z,-1.12
2018-12-25T05:13:37.542Z,-1.13
2018-12-25T05:16:10.263Z,-1.53
2018-12-25T05:18:41.985Z,-1.47
2018-12-25T05:21:13.725Z,-1.42
2018-12-25T05:23:45.476Z,-1.36
2018-12-25T05:26:17.220Z,-1.37
2018-12-25T05:28:49.289Z,-1.18
2018-12-25T05:31:21.047Z,-1.32
2018-12-25T05:33:52.886Z,-1.29
2018-12-25T05:36:24.640Z,-1.25
2018-12-25T05:38:56.378Z,-1.44
2018-12-25T05:41:28.108Z,-1.72
2018-12-25T05:43:59.956Z,-1.59
2018-12-25T05:46:31.796Z,-1.68
2018-12-25T05:49:03.534Z,-1.63
2018-12-25T05:51:35.568Z,-1.51
2018-12-25T05:54:07.326Z,-1.51
2018-12-25T05:56:39.042Z,-1.44
2018-12-25T05:59:10.784Z,-1.57
2018-12-25T06:01:42.525Z,-1.38
2018-12-25T06:04:14.267Z,-1.27
2018-12-25T06:06:45.998Z,-1.32
2018-12-25T06:09:17.746Z,-1.88
2018-12-25T06:11:49.490Z,-1.77
2018-12-25T06:14:21.262Z,-1.65
2018-12-25T06:16:53.062Z,-1.47
2018-12-25T06:19:25.263Z,-1.76
2018-12-25T06:21:56.990Z,-1.81
2018-12-25T06:24:28.743Z,-1.72
2018-12-25T06:27:00.481Z,-2.16
2018-12-25T06:29:32.231Z,-1.76
2018-12-25T06:32:03.965Z,-1.77
2018-12-25T06:34:35.750Z,-1.79
2018-12-25T06:37:07.507Z,-2.01
2018-12-25T06:39:39.336Z,-1.97
2018-12-25T06:42:11.138Z,-1.71
2018-12-25T06:44:42.981Z,-2.08
2018-12-25T06:47:14.999Z,-1.94
2018-12-25T06:49:46.756Z,-1.82
2018-12-25T06:52:20.516Z,-1.79
2018-12-25T06:54:51.947Z,-1.91
2018-12-25T06:57:23.780Z,-1.86
2018-12-25T06:59:55.526Z,-1.86
2018-12-25T07:02:27.260Z,-1.82
2018-12-25T07:04:59.009Z,-1.87
2018-12-25T07:07:30.758Z,-1.96
2018-12-25T07:10:02.572Z,-2.10
2018-12-25T07:12:34.317Z,-2.18
2018-12-25T07:15:06.316Z,-2.22
2018-12-25T07:17:57.267Z,-2.01
2018-12-25T07:20:40.703Z,-2.08
2018-12-25T07:23:31.646Z,-1.80
2018-12-25T07:26:15.752Z,-1.97
2018-12-25T07:29:06.711Z,-1.72
2018-12-25T07:31:50.642Z,-1.85
2018-12-25T07:34:42.155Z,-1.87
2018-12-25T07:37:26.055Z,-1.83
2018-12-25T07:40:16.995Z,-1.79
2018-12-25T07:43:00.876Z,-1.85
2018-12-25T07:45:51.929Z,-1.83
2018-12-25T07:48:35.456Z,-1.67
2018-12-25T07:51:20.796Z,-1.78
2018-12-25T07:54:11.362Z,-1.84
2018-12-25T07:56:54.835Z,-1.71
2018-12-25T07:59:45.783Z,-2.05
2018-12-25T08:02:27.846Z,-1.94
2018-12-25T08:05:18.967Z,-1.78
2018-12-25T08:08:02.294Z,-1.90
2018-12-25T08:10:53.246Z,-2.01
2018-12-25T08:13:36.796Z,-1.92
2018-12-25T08:16:28.036Z,-1.95
2018-12-25T08:19:12.126Z,-1.94
2018-12-25T08:21:55.599Z,-1.67
2018-12-25T08:24:46.824Z,-1.63
2018-12-25T08:27:30.726Z,-1.54
2018-12-25T08:30:21.687Z,-1.91
2018-12-25T08:33:05.495Z,-1.66
2018-12-25T08:35:49.185Z,-1.70
2018-12-25T08:38:40.144Z,-1.53
2018-12-25T08:41:23.627Z,-1.69
2018-12-25T08:44:14.574Z,-1.63
2018-12-25T08:47:02.582Z,-1.62
2018-12-25T08:49:50.693Z,-1.59
2018-12-25T08:52:34.019Z,-1.57
2018-12-25T08:55:25.073Z,-1.58
2018-12-25T08:58:07.177Z,-1.54
2018-12-25T09:00:58.189Z,-1.59
2018-12-25T09:03:42.271Z,-1.47
2018-12-25T09:06:33.204Z,-1.49
2018-12-25T09:09:17.266Z,-1.30
2018-12-25T09:12:08.470Z,-1.51
2018-12-25T09:14:51.975Z,-1.41
2018-12-25T09:17:42.938Z,-1.33
2018-12-25T09:20:26.284Z,-1.27
2018-12-25T09:23:17.577Z,-1.11
2018-12-25T09:26:01.314Z,-1.13
2018-12-25T09:28:52.268Z,-1.61
2018-12-25T09:31:36.287Z,-1.23
2018-12-25T09:34:20.014Z,-1.61
2018-12-25T09:37:03.790Z,-1.33
2018-12-25T09:39:54.746Z,-1.27
2018-12-25T09:42:38.556Z,-1.10
2018-12-25T09:45:29.500Z,-1.05
2018-12-25T09:48:13.492Z,-0.85
2018-12-25T09:50:57.514Z,-1.03
2018-12-25T09:53:40.990Z,-0.97
2018-12-25T09:56:31.927Z,-0.98
2018-12-25T09:59:15.516Z,-0.97
2018-12-25T10:02:07.422Z,-0.97
2018-12-25T10:04:51.269Z,-1.02
2018-12-25T10:07:42.280Z,-0.98
2018-12-25T10:10:25.970Z,-0.90
2018-12-25T10:13:09.398Z,-1.07
2018-12-25T10:15:53.263Z,-1.18
2018-12-25T10:18:44.454Z,-0.94
2018-12-25T10:21:28.914Z,-1.21
2018-12-25T10:24:19.864Z,-1.40
2018-12-25T10:27:03.714Z,-0.98
2018-12-25T10:29:47.454Z,-0.97
2018-12-25T10:32:38.406Z,-0.86
2018-12-25T10:35:22.208Z,-0.84
2018-12-25T10:38:13.391Z,-0.77
2018-12-25T10:40:57.526Z,-0.74
2018-12-25T10:43:48.468Z,-0.66
2018-12-25T10:46:32.607Z,-0.79
2018-12-25T10:49:23.574Z,-0.66
2018-12-25T10:52:11.537Z,-0.60
2018-12-25T10:55:00.203Z,-0.62
2018-12-25T10:57:43.758Z,-0.51
2018-12-25T11:00:41.687Z,-0.51
2018-12-25T11:03:25.729Z,-0.53
2018-12-25T11:06:09.143Z,-0.52
2018-12-25T11:09:00.117Z,-0.57
2018-12-25T11:11:43.789Z,-0.46
2018-12-25T11:14:34.738Z,-0.41
2018-12-25T11:17:18.511Z,-0.56
2018-12-25T11:20:11.537Z,-0.32
2018-12-25T11:23:03.938Z,-0.21
2018-12-25T11:25:54.888Z,-0.22
2018-12-25T11:28:39.952Z,-0.15
2018-12-25T11:31:31.374Z,-0.09
2018-12-25T11:34:14.684Z,-0.02
2018-12-25T11:36:58.345Z,0.04
2018-12-25T11:39:49.694Z,0.14
2018-12-25T11:42:43.718Z,0.13
2018-12-25T11:45:36.818Z,0.09
2018-12-25T11:48:39.408Z,0.13
2018-12-25T11:51:30.348Z,0.18
2018-12-25T11:54:14.256Z,0.23
2018-12-25T11:57:05.272Z,0.16
2018-12-25T11:59:36.983Z,0.31
2018-12-25T12:02:28.911Z,0.48
2018-12-25T12:05:13.029Z,0.37
2018-12-25T12:08:04.269Z,0.36
2018-12-25T12:10:47.746Z,0.41
2018-12-25T12:13:38.704Z,0.39
2018-12-25T12:16:41.375Z,0.30
2018-12-25T12:19:32.328Z,0.30
2018-12-25T12:22:15.640Z,0.42
2018-12-25T12:25:06.797Z,0.44
2018-12-25T12:27:50.741Z,0.49
2018-12-25T12:30:41.671Z,0.64
2018-12-25T12:33:25.922Z,0.44
2018-12-25T12:36:09.713Z,0.67
2018-12-25T12:39:00.639Z,0.59
2018-12-25T12:41:43.899Z,0.67
2018-12-25T12:44:27.571Z,0.60
2018-12-25T12:47:11.039Z,0.63
2018-12-25T12:50:01.977Z,0.70
2018-12-25T12:52:46.026Z,0.45
2018-12-25T12:55:36.955Z,0.71
2018-12-25T12:58:21.182Z,0.79
2018-12-25T13:01:12.359Z,0.57
2018-12-25T13:03:56.050Z,0.63
2018-12-25T13:06:48.265Z,0.49
2018-12-25T13:09:32.269Z,0.63
2018-12-25T13:12:23.209Z,0.87
2018-12-25T13:15:07.157Z,0.57
2018-12-25T13:17:39.157Z,0.88
2018-12-25T13:20:10.892Z,1.02
2018-12-25T13:22:42.605Z,0.95
2018-12-25T13:25:14.340Z,0.90
2018-12-25T13:27:46.061Z,0.97
2018-12-25T13:30:17.829Z,0.96
2018-12-25T13:32:49.568Z,1.02
2018-12-25T13:35:21.330Z,0.96
2018-12-25T13:37:53.049Z,1.02
2018-12-25T13:40:24.952Z,0.99
2018-12-25T13:42:56.674Z,0.97
2018-12-25T13:45:28.402Z,0.95
2018-12-25T13:48:00.111Z,0.98
2018-12-25T13:50:31.834Z,1.03
2018-12-25T13:53:03.682Z,1.02
2018-12-25T13:55:35.475Z,1.09
2018-12-25T13:58:07.195Z,0.96
2018-12-25T14:00:38.927Z,1.02
2018-12-25T14:03:10.681Z,0.98
2018-12-25T14:05:42.400Z,0.93
2018-12-25T14:08:14.114Z,0.92
2018-12-25T14:10:45.845Z,0.99
2018-12-25T14:13:17.596Z,0.99
2018-12-25T14:15:49.325Z,1.03
2018-12-25T14:18:21.365Z,0.91
2018-12-25T14:20:53.108Z,0.89
2018-12-25T14:23:24.847Z,0.93
2018-12-25T14:25:56.580Z,1.01
2018-12-25T14:28:28.296Z,1.01
2018-12-25T14:31:00.029Z,0.90
2018-12-25T14:33:32.030Z,0.90
2018-12-25T14:36:03.800Z,1.01
2018-12-25T14:38:35.521Z,1.03
2018-12-25T14:41:09.358Z,0.94
2018-12-25T14:43:40.670Z,0.98
2018-12-25T14:46:12.386Z,0.93
2018-12-25T14:48:44.095Z,0.93
2018-12-25T14:51:15.882Z,0.85
2018-12-25T14:53:47.589Z,1.05
2018-12-25T14:56:19.402Z,0.77
2018-12-25T14:58:51.136Z,1.00
2018-12-25T15:01:23.012Z,0.85
2018-12-25T15:03:54.814Z,0.88
2018-12-25T15:06:26.550Z,0.91
2018-12-25T15:08:58.270Z,0.91
2018-12-25T15:11:30.015Z,0.82
2018-12-25T15:14:02.772Z,0.90
2018-12-25T15:16:34.492Z,0.90
2018-12-25T15:19:06.299Z,0.83
2018-12-25T15:21:38.029Z,0.85
2018-12-25T15:24:09.804Z,0.89
2018-12-25T15:26:41.597Z,0.78
2018-12-25T15:29:13.351Z,0.81
2018-12-25T15:31:45.074Z,0.72
2018-12-25T15:34:16.816Z,0.83
2018-12-25T15:36:48.551Z,0.71
2018-12-25T15:39:20.318Z,0.73
2018-12-25T15:41:52.053Z,0.69
2018-12-25T15:44:24.154Z,0.72
2018-12-25T15:46:55.961Z,0.78
2018-12-25T15:49:27.688Z,0.70
2018-12-25T15:51:59.463Z,0.63
2018-12-25T15:54:31.184Z,0.75
2018-12-25T15:57:04.672Z,0.74
2018-12-25T15:59:36.386Z,0.75
2018-12-25T16:02:08.128Z,0.69
2018-12-25T16:04:39.930Z,0.63
2018-12-25T16:07:11.865Z,0.44
2018-12-25T16:09:43.980Z,0.56
2018-12-25T16:12:15.724Z,0.54
2018-12-25T16:14:47.523Z,0.50
2018-12-25T16:17:19.254Z,0.51
2018-12-25T16:19:50.974Z,0.53
2018-12-25T16:22:23.096Z,0.52
2018-12-25T16:24:54.850Z,0.50
2018-12-25T16:27:26.635Z,0.46
2018-12-25T16:29:58.371Z,0.48
2018-12-25T16:32:30.097Z,0.47
2018-12-25T16:35:01.850Z,0.48
2018-12-25T16:37:33.617Z,0.48
2018-12-25T16:40:06.503Z,0.49
2018-12-25T16:42:38.312Z,0.49
2018-12-25T16:45:10.111Z,0.48
2018-12-25T16:47:41.876Z,0.47
2018-12-25T16:50:13.606Z,0.46
2018-12-25T16:52:46.834Z,0.46
2018-12-25T16:55:18.809Z,0.48
2018-12-25T16:57:50.597Z,0.47
2018-12-25T17:00:22.349Z,0.45
2018-12-25T17:02:54.088Z,0.38
2018-12-25T17:05:26.140Z,0.36
2018-12-25T17:07:57.884Z,0.33
2018-12-25T17:10:29.940Z,0.31
2018-12-25T17:13:01.961Z,0.30
2018-12-25T17:15:33.684Z,0.25
2018-12-25T17:18:05.432Z,0.23
2018-12-25T17:20:37.262Z,0.20
2018-12-25T17:23:10.072Z,0.19
2018-12-25T17:25:42.123Z,0.16
2018-12-25T17:28:13.854Z,0.13
2018-12-25T17:30:45.627Z,0.09
2018-12-25T17:33:17.380Z,0.06
2018-12-25T17:35:49.126Z,0.00
2018-12-25T17:38:20.891Z,0.02
2018-12-25T17:40:52.600Z,0.01
2018-12-25T17:43:24.417Z,0.02
2018-12-25T17:45:57.232Z,-0.01
2018-12-25T17:48:28.975Z,-0.06
2018-12-25T17:51:00.724Z,-0.15
2018-12-25T17:53:32.552Z,-0.24
2018-12-25T17:56:04.291Z,-0.32
2018-12-25T17:58:36.034Z,-0.39
2018-12-25T18:01:07.760Z,-0.45
2018-12-25T18:03:39.509Z,-0.51
2018-12-25T18:06:11.308Z,-0.54
2018-12-25T18:08:43.111Z,-0.55
2018-12-25T18:11:14.935Z,-0.46
2018-12-25T18:13:47.033Z,-0.46
2018-12-25T18:16:18.766Z,-0.54
2018-12-25T18:18:51.159Z,-0.54
2018-12-25T18:21:22.934Z,-0.64
2018-12-25T18:23:54.669Z,-0.75
2018-12-25T18:26:26.912Z,-0.81
2018-12-25T18:28:58.619Z,-0.89
2018-12-25T18:31:31.600Z,-0.93
2018-12-25T18:34:03.354Z,-0.98
2018-12-25T18:36:35.115Z,-0.99
2018-12-25T18:39:08.316Z,-1.02
2018-12-25T18:41:40.062Z,-1.04
2018-12-25T18:44:11.869Z,-1.08
2018-12-25T18:46:43.609Z,-1.11
2018-12-25T18:49:15.387Z,-1.16
2018-12-25T18:51:47.113Z,-1.17
2018-12-25T18:54:18.855Z,-1.23
2018-12-25T18:56:50.657Z,-1.23
2018-12-25T18:59:22.459Z,-1.27
2018-12-25T19:01:54.208Z,-1.35
2018-12-25T19:04:26.906Z,-1.38
2018-12-25T19:06:58.792Z,-1.44
2018-12-25T19:09:30.572Z,-1.47
2018-12-25T19:12:02.302Z,-1.50
2018-12-25T19:14:34.120Z,-1.54
2018-12-25T19:17:25.087Z,-1.58
2018-12-25T19:20:16.264Z,-1.58
2018-12-25T19:23:07.214Z,-1.59
2018-12-25T19:25:50.975Z,-1.64
2018-12-25T19:28:41.924Z,-1.67
2018-12-25T19:31:25.344Z,-1.71
2018-12-25T19:34:16.297Z,-1.75
2018-12-25T19:37:00.051Z,-1.78
2018-12-25T19:39:43.433Z,-1.81
2018-12-25T19:42:34.397Z,-1.81
2018-12-25T19:45:19.670Z,-1.84
2018-12-25T19:48:10.723Z,-1.87
2018-12-25T19:50:54.769Z,-1.92
2018-12-25T19:53:45.791Z,-1.94
2018-12-25T19:56:29.279Z,-1.83
2018-12-25T19:59:13.268Z,-1.81
2018-12-25T20:02:04.516Z,-1.84
2018-12-25T20:05:07.693Z,-1.86
2018-12-25T20:08:37.149Z,-1.87
2018-12-25T20:11:40.694Z,-1.90
2018-12-25T20:15:10.125Z,-1.92
2018-12-25T20:21:57.630Z,-2.06
2018-12-25T20:25:00.949Z,-2.11
2018-12-25T20:32:24.997Z,-2.18
2018-12-25T20:35:16.327Z,-2.20
2018-12-25T20:38:18.983Z,-2.15
2018-12-25T20:41:25.476Z,-2.16
2018-12-25T20:44:54.880Z,-2.49
2018-12-25T20:48:02.407Z,-2.27
2018-12-25T20:51:05.040Z,-2.41
2018-12-25T20:54:08.465Z,-2.52
2018-12-25T20:57:17.673Z,-2.33
2018-12-25T21:00:47.076Z,-2.35
2018-12-25T21:03:42.194Z,-2.35
2018-12-25T21:06:36.221Z,-2.46
2018-12-25T21:10:05.813Z,-2.36
2018-12-25T21:13:11.331Z,-2.40
2018-12-25T21:20:13.754Z,-2.51
2018-12-25T21:23:16.783Z,-2.76
2018-12-25T21:26:46.191Z,-2.44
2018-12-25T21:29:30.361Z,-2.43
2018-12-25T21:32:22.402Z,-2.49
2018-12-25T21:35:08.136Z,-2.57
2018-12-25T21:37:51.943Z,-2.63
2018-12-25T21:40:36.144Z,-2.65
2018-12-25T21:43:19.664Z,-2.65
2018-12-25T21:46:02.874Z,-2.68
2018-12-25T21:51:56.380Z,-2.75
2018-12-25T21:54:47.469Z,-2.82
2018-12-25T21:57:31.503Z,-2.76
2018-12-25T22:00:24.310Z,-2.81
2018-12-25T22:03:07.892Z,-2.85
2018-12-25T22:05:58.852Z,-2.86
2018-12-25T22:08:42.294Z,-2.77
2018-12-25T22:11:26.204Z,-2.73
2018-12-25T22:14:17.140Z,-2.49
2018-12-25T22:17:00.971Z,-2.69
2018-12-25T22:19:51.918Z,-2.76
2018-12-25T22:22:35.363Z,-2.80
2018-12-25T22:25:27.250Z,-2.86
2018-12-25T22:28:20.297Z,-2.88
2018-12-25T22:31:11.838Z,-2.96
2018-12-25T22:33:55.844Z,-3.01
2018-12-25T22:36:39.658Z,-3.02
2018-12-25T22:39:22.937Z,-3.01
2018-12-25T22:42:06.386Z,-2.97
2018-12-25T22:44:38.184Z,-3.21
2018-12-25T22:47:21.667Z,-2.99
2018-12-25T22:50:12.589Z,-2.97
2018-12-25T22:52:54.751Z,-3.11
2018-12-25T22:55:45.691Z,-3.74
2018-12-25T22:58:29.729Z,-3.35
2018-12-25T23:01:20.988Z,-3.45
2018-12-25T23:04:04.481Z,-3.33
2018-12-25T23:06:55.426Z,-3.33
2018-12-25T23:09:38.992Z,-3.39
2018-12-25T23:12:29.947Z,-3.32
2018-12-25T23:15:13.501Z,-3.33
2018-12-25T23:17:57.683Z,-3.32
2018-12-25T23:20:48.699Z,-3.34
2018-12-25T23:23:32.427Z,-3.28
2018-12-25T23:26:24.100Z,-3.33
2018-12-25T23:29:07.446Z,-3.24
2018-12-25T23:31:58.387Z,-3.25
2018-12-25T23:34:41.794Z,-3.22
2018-12-25T23:37:25.260Z,-3.22
2018-12-25T23:40:16.221Z,-3.25
2018-12-25T23:43:00.352Z,-3.39
2018-12-25T23:45:44.218Z,-3.34
2018-12-25T23:48:28.315Z,-3.39
2018-12-25T23:51:19.262Z,-3.44
2018-12-25T23:54:03.192Z,-3.45
2018-12-25T23:56:54.144Z,-3.54
2018-12-25T23:59:38.045Z,-3.70
